createdAt,value
2022-12-03T00:01:38.974Z,21.83
2022-12-03T00:04:07.960Z,24.50
2022-12-03T00:06:36.016Z,23.27
2022-12-03T00:09:04.985Z,20.38
2022-12-03T00:11:33.017Z,21.05
2022-12-03T00:14:00.939Z,20.02
2022-12-03T00:16:28.818Z,22.45
2022-12-03T00:18:56.857Z,22.55
2022-12-03T00:21:25.090Z,18.83
2022-12-03T00:23:53.047Z,21.00
2022-12-03T00:26:21.245Z,21.27
2022-12-03T00:28:49.762Z,22.60
2022-12-03T00:31:18.759Z,19.65
2022-12-03T00:33:46.663Z,21.77
2022-12-03T00:36:14.564Z,22.23
2022-12-03T00:38:42.530Z,22.38
2022-12-03T00:41:10.561Z,23.00
2022-12-03T00:43:38.461Z,24.90
2022-12-03T00:46:06.557Z,22.23
2022-12-03T00:48:37.134Z,21.25
2022-12-03T00:51:05.262Z,23.70
2022-12-03T00:53:33.337Z,17.30
2022-12-03T00:56:01.857Z,19.98
2022-12-03T00:58:29.789Z,17.98
2022-12-03T01:00:58.209Z,17.38
2022-12-03T01:03:26.383Z,14.70
2022-12-03T01:05:54.325Z,17.52
2022-12-03T01:08:22.255Z,16.50
2022-12-03T01:10:50.479Z,18.20
2022-12-03T01:13:18.423Z,21.05
2022-12-03T01:15:46.369Z,17.73
2022-12-03T01:18:14.432Z,16.55
2022-12-03T01:20:42.409Z,18.33
2022-12-03T01:23:10.332Z,18.23
2022-12-03T01:25:38.301Z,18.08
2022-12-03T01:28:06.184Z,17.92
2022-12-03T01:30:54.571Z,14.93
2022-12-03T01:33:22.515Z,17.08
2022-12-03T01:35:50.429Z,16.02
2022-12-03T01:38:18.354Z,16.67
2022-12-03T01:40:46.346Z,18.00
2022-12-03T01:43:14.265Z,17.67
2022-12-03T01:45:42.267Z,15.52
2022-12-03T01:48:16.918Z,13.73
2022-12-03T01:50:45.567Z,18.60
2022-12-03T01:53:16.912Z,21.92
2022-12-03T01:55:48.752Z,18.40
2022-12-03T01:58:19.959Z,14.90
2022-12-03T02:00:47.923Z,18.15
2022-12-03T02:03:21.346Z,18.17
2022-12-03T02:05:49.786Z,19.33
2022-12-03T02:08:31.937Z,19.60
2022-12-03T02:11:07.979Z,15.77
2022-12-03T02:13:36.693Z,17.70
2022-12-03T02:16:05.022Z,15.77
2022-12-03T02:18:32.957Z,18.23
2022-12-03T02:21:25.144Z,15.10
2022-12-03T02:24:00.744Z,16.17
2022-12-03T02:26:30.026Z,18.25
2022-12-03T02:28:58.242Z,19.63
2022-12-03T02:31:26.407Z,18.60
2022-12-03T02:33:54.532Z,18.30
2022-12-03T02:36:22.765Z,14.70
2022-12-03T02:38:51.335Z,17.48
2022-12-03T02:41:40.077Z,14.23
2022-12-03T02:44:09.237Z,15.27
2022-12-03T02:46:37.443Z,13.93
2022-12-03T02:49:06.743Z,19.10
2022-12-03T02:51:35.342Z,15.90
2022-12-03T02:54:03.916Z,18.15
2022-12-03T02:56:33.210Z,17.70
2022-12-03T02:59:03.511Z,15.57
2022-12-03T03:01:31.654Z,16.35
2022-12-03T03:03:59.693Z,20.38
2022-12-03T03:06:27.621Z,13.80
2022-12-03T03:08:55.813Z,17.65
2022-12-03T03:11:24.616Z,15.50
2022-12-03T03:13:52.551Z,16.13
2022-12-03T03:16:20.693Z,18.55
2022-12-03T03:18:49.404Z,17.10
2022-12-03T03:21:17.228Z,17.13
2022-12-03T03:23:45.176Z,15.43
2022-12-03T03:26:14.550Z,17.77
2022-12-03T03:28:51.946Z,18.05
2022-12-03T03:31:23.306Z,17.90
2022-12-03T03:33:51.975Z,13.90
2022-12-03T03:36:20.447Z,13.27
2022-12-03T03:38:49.163Z,17.45
2022-12-03T03:41:17.822Z,17.55
2022-12-03T03:43:48.368Z,19.35
2022-12-03T03:46:17.706Z,17.20
2022-12-03T03:48:45.915Z,16.73
2022-12-03T03:51:14.798Z,16.02
2022-12-03T03:53:48.080Z,15.15
2022-12-03T03:56:20.751Z,15.90
2022-12-03T03:58:48.837Z,15.13
2022-12-03T04:01:18.178Z,17.20
2022-12-03T04:03:46.296Z,20.23
2022-12-03T04:06:14.179Z,14.30
2022-12-03T04:08:42.364Z,19.08
2022-12-03T04:11:28.913Z,18.40
2022-12-03T04:13:56.868Z,18.38
2022-12-03T04:16:24.889Z,15.63
2022-12-03T04:18:52.952Z,15.55
2022-12-03T04:21:42.178Z,15.45
2022-12-03T04:24:12.067Z,12.93
2022-12-03T04:26:58.590Z,14.15
2022-12-03T04:29:26.704Z,19.50
2022-12-03T04:32:13.171Z,13.55
2022-12-03T04:34:59.440Z,16.75
2022-12-03T04:37:27.828Z,15.30
2022-12-03T04:39:55.790Z,13.57
2022-12-03T04:42:23.780Z,16.42
2022-12-03T04:44:52.305Z,18.75
2022-12-03T04:47:22.285Z,16.42
2022-12-03T04:49:51.749Z,14.70
2022-12-03T04:52:20.995Z,17.30
2022-12-03T04:54:49.034Z,14.85
2022-12-03T04:57:17.088Z,16.80
2022-12-03T04:59:45.078Z,18.73
2022-12-03T05:02:13.025Z,17.02
2022-12-03T05:04:41.005Z,18.50
2022-12-03T05:07:08.942Z,19.65
2022-12-03T05:09:36.894Z,17.08
2022-12-03T05:12:05.079Z,17.08
2022-12-03T05:14:32.971Z,16.40
2022-12-03T05:17:01.143Z,17.88
2022-12-03T05:19:47.840Z,13.73
2022-12-03T05:22:15.902Z,16.35
2022-12-03T05:24:43.838Z,16.15
2022-12-03T05:27:11.672Z,14.57
2022-12-03T05:29:39.606Z,18.35
2022-12-03T05:32:07.510Z,16.73
2022-12-03T05:34:35.402Z,16.55
2022-12-03T05:37:03.527Z,13.85
2022-12-03T05:39:31.546Z,13.68
2022-12-03T05:42:17.826Z,17.48
2022-12-03T05:44:45.750Z,13.30
2022-12-03T05:47:13.679Z,13.60
2022-12-03T05:49:41.653Z,13.50
2022-12-03T05:52:09.582Z,15.70
2022-12-03T05:54:37.440Z,13.90
2022-12-03T05:57:05.974Z,16.80
2022-12-03T05:59:34.532Z,12.65
2022-12-03T06:02:02.818Z,9.75
2022-12-03T06:04:30.843Z,11.07
2022-12-03T06:06:59.111Z,9.90
2022-12-03T06:09:27.059Z,7.15
2022-12-03T06:11:54.996Z,4.70
2022-12-03T06:14:23.031Z,5.20
2022-12-03T06:16:50.992Z,6.40
2022-12-03T06:19:18.944Z,6.22
2022-12-03T06:21:46.823Z,4.93
2022-12-03T06:24:14.832Z,4.95
2022-12-03T06:26:42.796Z,6.40
2022-12-03T06:29:10.730Z,5.53
2022-12-03T06:31:38.657Z,5.38
2022-12-03T06:34:06.645Z,4.13
2022-12-03T06:36:34.558Z,4.55
2022-12-03T06:39:02.488Z,3.88
2022-12-03T06:41:30.638Z,5.25
2022-12-03T06:43:58.584Z,5.90
2022-12-03T06:46:26.540Z,7.28
2022-12-03T06:48:54.618Z,9.30
2022-12-03T06:51:22.603Z,7.72
2022-12-03T06:53:50.445Z,4.72
2022-12-03T06:56:22.041Z,6.90
2022-12-03T06:58:50.304Z,4.82
2022-12-03T07:01:18.409Z,3.75
2022-12-03T07:03:46.800Z,4.53
2022-12-03T07:06:14.814Z,6.20
2022-12-03T07:08:42.787Z,4.20
2022-12-03T07:11:30.636Z,3.38
2022-12-03T07:14:05.179Z,4.13
2022-12-03T07:16:35.625Z,5.50
2022-12-03T07:19:05.425Z,5.65
2022-12-03T07:21:33.648Z,4.22
2022-12-03T07:24:01.784Z,5.78
2022-12-03T07:26:30.033Z,3.15
2022-12-03T07:28:58.225Z,4.68
2022-12-03T07:31:26.241Z,3.28
2022-12-03T07:33:54.313Z,3.95
2022-12-03T07:36:22.293Z,4.35
2022-12-03T07:38:50.271Z,5.47
2022-12-03T07:41:18.240Z,4.30
2022-12-03T07:43:46.303Z,3.83
2022-12-03T07:46:14.245Z,3.70
2022-12-03T07:48:42.132Z,4.95
2022-12-03T07:51:15.207Z,4.18
2022-12-03T07:53:43.603Z,4.38
2022-12-03T07:56:11.570Z,4.93
2022-12-03T07:58:40.214Z,5.95
2022-12-03T08:01:08.600Z,5.18
2022-12-03T08:03:36.627Z,4.35
2022-12-03T08:06:05.274Z,4.95
2022-12-03T08:08:33.174Z,3.47
2022-12-03T08:11:02.298Z,3.00
2022-12-03T08:13:30.392Z,5.03
2022-12-03T08:16:02.136Z,4.00
2022-12-03T08:18:30.150Z,5.10
2022-12-03T08:20:58.433Z,4.93
2022-12-03T08:23:26.505Z,4.38
2022-12-03T08:25:54.490Z,4.95
2022-12-03T08:28:26.917Z,3.53
2022-12-03T08:31:02.773Z,3.42
2022-12-03T08:33:35.935Z,3.65
2022-12-03T08:36:14.940Z,5.33
2022-12-03T08:38:48.399Z,4.50
2022-12-03T08:41:36.860Z,3.03
2022-12-03T08:44:38.993Z,3.13
2022-12-03T08:47:11.155Z,3.30
2022-12-03T08:49:40.615Z,2.72
2022-12-03T08:52:16.609Z,2.90
2022-12-03T08:54:51.823Z,3.17
2022-12-03T08:57:28.067Z,4.70
2022-12-03T09:00:21.274Z,3.42
2022-12-03T09:02:54.858Z,3.28
2022-12-03T09:05:27.505Z,2.40
2022-12-03T09:07:55.488Z,2.58
2022-12-03T09:10:23.401Z,2.30
2022-12-03T09:12:51.489Z,2.22
2022-12-03T09:15:19.322Z,2.65
2022-12-03T09:17:47.389Z,2.05
2022-12-03T09:20:15.401Z,4.75
2022-12-03T09:22:43.246Z,3.08
2022-12-03T09:25:11.284Z,2.30
2022-12-03T09:27:39.166Z,2.38
2022-12-03T09:30:07.599Z,2.25
2022-12-03T09:32:35.482Z,1.50
2022-12-03T09:35:03.713Z,2.05
2022-12-03T09:37:31.615Z,3.22
2022-12-03T09:39:59.615Z,3.05
2022-12-03T09:42:27.689Z,2.13
2022-12-03T09:44:56.068Z,2.13
2022-12-03T09:47:25.360Z,1.75
2022-12-03T09:49:53.862Z,2.53
2022-12-03T09:52:27.591Z,2.28
2022-12-03T09:55:05.674Z,2.70
2022-12-03T09:57:33.619Z,2.78
2022-12-03T10:00:01.786Z,1.80
2022-12-03T10:02:31.320Z,2.45
2022-12-03T10:04:59.369Z,1.85
2022-12-03T10:07:27.489Z,1.60
2022-12-03T10:09:55.774Z,1.73
2022-12-03T10:12:25.179Z,1.77
2022-12-03T10:14:54.396Z,2.53
2022-12-03T10:17:22.432Z,1.67
2022-12-03T10:19:50.786Z,1.52
2022-12-03T10:22:18.951Z,1.83
2022-12-03T10:25:03.924Z,2.05
2022-12-03T10:27:32.901Z,1.65
2022-12-03T10:30:03.529Z,2.00
2022-12-03T10:32:45.981Z,1.52
2022-12-03T10:35:20.970Z,3.78
2022-12-03T10:37:55.018Z,2.10
2022-12-03T10:40:46.094Z,1.60
2022-12-03T10:43:20.089Z,1.95
2022-12-03T10:46:03.344Z,1.58
2022-12-03T10:48:32.259Z,2.00
2022-12-03T10:51:13.730Z,2.00
2022-12-03T10:53:42.265Z,1.88
2022-12-03T10:56:29.050Z,1.30
2022-12-03T10:59:01.901Z,1.92
2022-12-03T11:01:31.932Z,1.88
2022-12-03T11:04:09.047Z,1.98
2022-12-03T11:06:38.191Z,2.25
2022-12-03T11:09:18.817Z,3.22
2022-12-03T11:11:47.717Z,2.53
2022-12-03T11:14:57.042Z,3.15
2022-12-03T11:17:48.419Z,2.95
2022-12-03T11:20:26.237Z,2.20
2022-12-03T11:22:59.942Z,3.35
2022-12-03T11:25:33.679Z,1.85
2022-12-03T11:28:13.411Z,4.05
2022-12-03T11:30:51.186Z,2.58
2022-12-03T11:33:34.347Z,1.80
2022-12-03T11:36:03.977Z,2.17
2022-12-03T11:38:38.524Z,3.40
2022-12-03T11:44:20.345Z,3.92
2022-12-03T11:46:49.826Z,1.98
2022-12-03T11:49:34.198Z,2.63
2022-12-03T11:52:18.130Z,1.95
2022-12-03T11:54:56.801Z,2.80
2022-12-03T11:57:39.942Z,2.15
2022-12-03T12:00:21.421Z,4.80
2022-12-03T12:02:52.122Z,2.10
2022-12-03T12:05:25.110Z,2.03
2022-12-03T12:07:54.491Z,1.55
2022-12-03T12:10:46.220Z,3.80
2022-12-03T12:13:33.965Z,3.17
2022-12-03T12:16:05.319Z,3.15
2022-12-03T12:18:42.609Z,1.80
2022-12-03T12:21:47.949Z,2.10
2022-12-03T12:24:47.794Z,1.65
2022-12-03T12:27:23.989Z,1.42
2022-12-03T12:29:59.397Z,1.73
2022-12-03T12:32:55.637Z,2.95
2022-12-03T12:35:26.465Z,3.22
2022-12-03T12:38:00.508Z,3.53
2022-12-03T12:40:32.042Z,3.58
2022-12-03T12:43:11.811Z,1.75
2022-12-03T12:45:43.590Z,4.20
2022-12-03T12:48:23.746Z,2.65
2022-12-03T12:51:01.128Z,2.83
2022-12-03T12:53:41.388Z,3.22
2022-12-03T12:56:19.466Z,3.58
2022-12-03T12:58:49.257Z,3.72
2022-12-03T13:01:22.670Z,4.55
2022-12-03T13:03:52.617Z,5.20
2022-12-03T13:06:33.372Z,3.00
2022-12-03T13:09:02.960Z,3.17
2022-12-03T13:11:42.600Z,5.22
2022-12-03T13:14:22.716Z,4.82
2022-12-03T13:16:54.632Z,3.35
2022-12-03T13:19:39.612Z,4.03
2022-12-03T13:22:20.652Z,3.03
2022-12-03T13:24:54.523Z,3.33
2022-12-03T13:27:29.865Z,2.83
2022-12-03T13:30:16.192Z,4.22
2022-12-03T13:32:44.630Z,3.80
2022-12-03T13:35:27.117Z,3.38
2022-12-03T13:37:55.052Z,4.25
2022-12-03T13:40:41.557Z,4.78
2022-12-03T13:43:18.939Z,4.15
2022-12-03T13:45:54.484Z,3.75
2022-12-03T13:48:25.348Z,3.90
2022-12-03T13:50:56.407Z,4.05
2022-12-03T13:53:26.719Z,3.80
2022-12-03T13:56:19.705Z,3.25
2022-12-03T13:58:47.581Z,4.18
2022-12-03T14:01:15.508Z,3.25
2022-12-03T14:03:44.785Z,2.30
2022-12-03T14:06:12.613Z,2.80
2022-12-03T14:08:40.619Z,3.70
2022-12-03T14:11:08.864Z,4.03
2022-12-03T14:13:38.391Z,2.55
2022-12-03T14:16:07.950Z,4.50
2022-12-03T14:18:35.886Z,4.75
2022-12-03T14:21:03.858Z,3.53
2022-12-03T14:23:31.704Z,5.88
2022-12-03T14:25:59.585Z,4.15
2022-12-03T14:28:27.732Z,4.65
2022-12-03T14:30:55.707Z,8.25
2022-12-03T14:33:23.878Z,7.68
2022-12-03T14:35:54.465Z,8.38
2022-12-03T14:38:22.421Z,10.18
2022-12-03T14:40:50.352Z,7.82
2022-12-03T14:43:18.200Z,9.18
2022-12-03T14:45:46.315Z,8.25
2022-12-03T14:48:14.294Z,6.88
2022-12-03T14:50:42.239Z,8.95
2022-12-03T14:53:10.209Z,7.53
2022-12-03T14:55:38.533Z,12.63
2022-12-03T14:58:06.570Z,9.00
2022-12-03T15:00:34.493Z,7.43
2022-12-03T15:03:02.377Z,8.05
2022-12-03T15:05:30.382Z,9.05
2022-12-03T15:07:58.242Z,10.60
2022-12-03T15:10:26.085Z,8.80
2022-12-03T15:12:53.925Z,8.25
2022-12-03T15:15:24.098Z,6.57
2022-12-03T15:17:51.955Z,4.00
2022-12-03T15:20:19.946Z,3.35
2022-12-03T15:22:47.873Z,3.35
2022-12-03T15:25:16.216Z,1.80
2022-12-03T15:27:44.253Z,2.15
2022-12-03T15:30:12.289Z,2.58
2022-12-03T15:32:40.759Z,2.58
2022-12-03T15:35:09.038Z,3.58
2022-12-03T15:37:37.011Z,2.97
2022-12-03T15:40:05.877Z,1.70
2022-12-03T15:42:33.754Z,2.50
2022-12-03T15:45:01.804Z,2.00
2022-12-03T15:47:31.075Z,2.45
2022-12-03T15:49:59.257Z,2.38
2022-12-03T15:52:27.096Z,2.40
2022-12-03T15:54:55.448Z,3.53
2022-12-03T15:57:23.870Z,2.38
2022-12-03T15:59:52.187Z,2.60
2022-12-03T16:02:20.568Z,3.42
2022-12-03T16:04:48.626Z,2.78
2022-12-03T16:07:16.627Z,2.15
2022-12-03T16:09:44.518Z,3.78
2022-12-03T16:12:12.390Z,3.60
2022-12-03T16:14:40.214Z,2.50
2022-12-03T16:17:08.306Z,3.40
2022-12-03T16:19:36.678Z,2.92
2022-12-03T16:22:04.548Z,2.25
2022-12-03T16:24:32.470Z,2.55
2022-12-03T16:27:00.507Z,4.00
2022-12-03T16:29:28.361Z,1.95
2022-12-03T16:31:56.465Z,2.95
2022-12-03T16:34:24.415Z,3.20
2022-12-03T16:36:52.412Z,3.97
2022-12-03T16:39:20.309Z,3.13
2022-12-03T16:41:48.178Z,2.40
2022-12-03T16:44:42.188Z,2.83
2022-12-03T16:47:10.058Z,2.83
2022-12-03T16:49:38.039Z,1.73
2022-12-03T16:52:06.022Z,3.53
2022-12-03T16:54:33.888Z,6.97
2022-12-03T16:57:01.703Z,2.97
2022-12-03T16:59:29.630Z,3.42
2022-12-03T17:01:57.631Z,4.35
2022-12-03T17:04:25.557Z,2.70
2022-12-03T17:06:53.425Z,2.70
2022-12-03T17:09:21.415Z,2.63
2022-12-03T17:11:49.269Z,2.78
2022-12-03T17:14:17.159Z,6.50
2022-12-03T17:16:45.119Z,7.35
2022-12-03T17:19:13.351Z,2.65
2022-12-03T17:21:42.102Z,10.10
2022-12-03T17:24:10.006Z,7.85
2022-12-03T17:26:39.546Z,10.50
2022-12-03T17:29:08.275Z,13.45
2022-12-03T17:31:43.871Z,15.38
2022-12-03T17:34:19.895Z,16.42
2022-12-03T17:36:50.049Z,22.58
2022-12-03T17:39:21.948Z,33.78
2022-12-03T17:41:51.954Z,37.65
2022-12-03T17:44:22.236Z,30.38
2022-12-03T17:46:52.225Z,37.47
2022-12-03T17:49:25.639Z,55.60
2022-12-03T17:51:59.490Z,20.58
2022-12-03T17:54:49.134Z,15.00
2022-12-03T17:57:28.864Z,15.45
2022-12-03T17:59:57.705Z,17.60
2022-12-03T18:02:26.683Z,15.52
2022-12-03T18:04:57.795Z,15.10
2022-12-03T18:07:40.784Z,13.75
2022-12-03T18:10:19.765Z,26.67
2022-12-03T18:13:01.716Z,30.38
2022-12-03T18:15:34.405Z,18.95
2022-12-03T18:18:04.021Z,17.17
2022-12-03T18:20:35.253Z,15.50
2022-12-03T18:23:04.975Z,17.35
2022-12-03T18:25:34.247Z,13.43
2022-12-03T18:28:04.182Z,17.15
2022-12-03T18:30:37.926Z,21.65
2022-12-03T18:33:09.499Z,27.67
2022-12-03T18:35:45.162Z,21.08
2022-12-03T18:38:21.844Z,15.52
2022-12-03T18:40:59.543Z,19.95
2022-12-03T18:43:32.964Z,32.00
2022-12-03T18:46:07.744Z,37.45
2022-12-03T18:49:00.743Z,23.88
2022-12-03T18:51:34.476Z,15.05
2022-12-03T18:54:48.164Z,15.48
2022-12-03T18:57:18.778Z,15.65
2022-12-03T18:59:53.655Z,15.32
2022-12-03T19:03:01.763Z,16.77
2022-12-03T19:05:20.043Z,14.00
2022-12-03T19:07:55.385Z,17.27
2022-12-03T19:10:24.857Z,20.63
2022-12-03T19:12:52.758Z,21.83
2022-12-03T19:15:21.459Z,16.67
2022-12-03T19:17:50.223Z,14.07
2022-12-03T19:20:19.798Z,15.00
2022-12-03T19:25:20.946Z,17.02
2022-12-03T19:27:55.805Z,19.50
2022-12-03T19:30:31.027Z,16.33
2022-12-03T19:33:07.306Z,18.38
2022-12-03T19:35:51.236Z,15.75
2022-12-03T19:38:35.476Z,17.33
2022-12-03T19:41:23.001Z,15.23
2022-12-03T19:44:09.275Z,16.58
2022-12-03T19:46:49.057Z,15.73
2022-12-03T19:49:32.144Z,21.33
2022-12-03T19:52:00.920Z,23.42
2022-12-03T19:54:28.966Z,24.73
2022-12-03T19:56:57.123Z,20.33
2022-12-03T19:59:25.426Z,18.80
2022-12-03T20:01:53.703Z,14.60
2022-12-03T20:04:21.636Z,16.67
2022-12-03T20:06:49.583Z,13.27
2022-12-03T20:09:24.594Z,13.82
2022-12-03T20:11:58.906Z,15.38
2022-12-03T20:14:26.771Z,18.90
2022-12-03T20:16:55.713Z,16.42
2022-12-03T20:19:24.088Z,22.10
2022-12-03T20:21:51.997Z,20.70
2022-12-03T20:24:19.935Z,26.77
2022-12-03T20:26:47.767Z,20.33
2022-12-03T20:29:16.003Z,19.90
2022-12-03T20:31:44.472Z,12.32
2022-12-03T20:34:12.754Z,15.43
2022-12-03T20:36:43.228Z,15.77
2022-12-03T20:39:12.583Z,12.30
2022-12-03T20:41:40.589Z,7.32
2022-12-03T20:44:08.593Z,6.03
2022-12-03T20:46:39.978Z,4.40
2022-12-03T20:49:10.736Z,4.20
2022-12-03T20:51:44.515Z,2.92
2022-12-03T20:54:25.424Z,2.60
2022-12-03T20:57:17.200Z,2.63
2022-12-03T20:59:50.980Z,2.53
2022-12-03T21:02:19.177Z,2.92
2022-12-03T21:04:47.342Z,2.20
2022-12-03T21:07:15.182Z,2.58
2022-12-03T21:09:43.076Z,2.15
2022-12-03T21:12:11.116Z,1.52
2022-12-03T21:14:40.295Z,2.35
2022-12-03T21:17:09.601Z,2.22
2022-12-03T21:19:38.256Z,2.90
2022-12-03T21:22:07.589Z,4.50
2022-12-03T21:24:35.805Z,3.50
2022-12-03T21:27:05.334Z,2.40
2022-12-03T21:29:33.250Z,2.58
2022-12-03T21:32:04.514Z,2.95
2022-12-03T21:34:36.405Z,2.90
2022-12-03T21:37:04.772Z,1.80
2022-12-03T21:39:32.790Z,1.83
2022-12-03T21:42:19.370Z,3.00
2022-12-03T21:44:48.734Z,5.05
2022-12-03T21:47:17.096Z,1.77
2022-12-03T21:49:45.045Z,1.90
2022-12-03T21:52:12.877Z,1.23
2022-12-03T21:54:40.771Z,2.47
2022-12-03T21:57:08.621Z,1.60
2022-12-03T21:59:36.709Z,1.60
2022-12-03T22:02:04.916Z,2.00
2022-12-03T22:04:33.003Z,2.47
2022-12-03T22:07:00.893Z,2.38
2022-12-03T22:09:28.931Z,2.67
2022-12-03T22:11:59.382Z,1.50
2022-12-03T22:14:28.185Z,1.33
2022-12-03T22:16:56.430Z,2.03
2022-12-03T22:19:25.693Z,1.35
2022-12-03T22:21:53.507Z,3.17
2022-12-03T22:24:21.631Z,1.42
2022-12-03T22:26:49.645Z,1.55
2022-12-03T22:29:17.484Z,2.20
2022-12-03T22:31:45.371Z,2.13
2022-12-03T22:34:13.349Z,1.35
2022-12-03T22:36:41.307Z,1.73
2022-12-03T22:39:09.206Z,1.38
2022-12-03T22:41:37.097Z,1.17
2022-12-03T22:44:05.230Z,1.63
2022-12-03T22:46:33.407Z,1.73
2022-12-03T22:49:06.661Z,2.22
2022-12-03T22:51:35.771Z,1.70
2022-12-03T22:54:04.209Z,2.10
2022-12-03T22:56:32.819Z,1.65
2022-12-03T22:59:01.057Z,1.95
2022-12-03T23:01:30.826Z,1.55
2022-12-03T23:03:59.573Z,2.33
2022-12-03T23:06:28.806Z,2.53
2022-12-03T23:08:58.351Z,1.90
2022-12-03T23:11:27.073Z,2.17
2022-12-03T23:13:55.161Z,2.33
2022-12-03T23:16:26.356Z,2.30
2022-12-03T23:18:54.864Z,2.05
2022-12-03T23:21:29.517Z,3.45
2022-12-03T23:24:03.535Z,3.28
2022-12-03T23:26:34.982Z,1.83
2022-12-03T23:29:03.068Z,1.92
2022-12-03T23:31:32.790Z,1.50
2022-12-03T23:34:01.185Z,1.58
2022-12-03T23:36:32.396Z,1.42
2022-12-03T23:39:00.659Z,1.25
2022-12-03T23:41:28.812Z,1.17
2022-12-03T23:43:57.175Z,1.33
2022-12-03T23:46:27.670Z,1.15
2022-12-03T23:48:56.333Z,1.10
2022-12-03T23:51:25.591Z,1.48
2022-12-03T23:53:54.989Z,1.13
2022-12-03T23:56:25.696Z,1.15
2022-12-03T23:58:53.864Z,1.00
